No.3tokuyomaru — JD3132 — position and weather

sailwx.info

Track history (hours):
 
Tides and Currents Weather Stations Pressure Air Temp Water Temp Dewpoint Dewpoint Depression Visibility Wind Speed Wind Dir Waves Ship Positions

No.3tokuyomaru

Last reported at 2016-May-23 09:31 UTC. Time now 2016-May-24 11:56 UTC.
Position N 33°57' E 134°57'.

Length 67 m; draft 4 m.

Type: Tanker. MMSI: 431002151.

Date/timePositionNaut miles runAvg speedWind from/ knotsBaromVisibWave heightAir tempDewpointWater temp
2016-May-23 09:31N 33°57' E 134°57'2 0.1
2016-May-22 10:14N 33°59' E 134°55'242 9.0
2016-May-21 07:29N 35°08' E 139°36'1010.2
2016-May-21 06:31N 35°14' E 139°46'1111.6
2016-May-21 05:34N 35°25' E 139°43'7 3.2
2016-May-21 03:29N 35°31' E 139°46'0 0.0
2016-May-21 02:27N 35°31' E 139°46'0 0.0
2016-May-21 01:05N 35°31' E 139°46'0 0.0
2016-May-21 00:29N 35°31' E 139°46'2 2.3
2016-May-20 23:33N 35°30' E 139°48'1 1.0
2016-May-20 22:32N 35°29' E 139°49'0 0.0
2016-May-20 21:32N 35°29' E 139°49'0 0.0
2016-May-20 20:32N 35°29' E 139°49'0 0.0
2016-May-20 19:32N 35°29' E 139°49'0 0.0
2016-May-20 18:32N 35°29' E 139°49'0 0.0
2016-May-20 17:32N 35°29' E 139°49'0 0.0
2016-May-20 16:32N 35°29' E 139°49'0 0.0
2016-May-20 15:29N 35°29' E 139°49'2 1.8
2016-May-20 14:33N 35°28' E 139°48'1111.3
2016-May-20 13:33N 35°16' E 139°46'1111.1
2016-May-20 12:31N 35°05' E 139°43'  
2016-May-17 07:12N 35°09' E 139°44'711.3
2016-May-17 06:33N 35°16' E 139°46'1110.8
2016-May-17 05:33N 35°27' E 139°45'3 1.4
2016-May-17 03:11N 35°30' E 139°45'0 0.0
2016-May-17 02:23N 35°30' E 139°45'0 0.0
2016-May-17 01:05N 35°30' E 139°45'0 0.0
2016-May-17 00:34N 35°30' E 139°45'4 3.6
2016-May-16 23:33N 35°29' E 139°49'0 0.0
2016-May-16 22:32N 35°29' E 139°49'0 0.0
2016-May-16 21:33N 35°29' E 139°49'0 0.0
2016-May-16 20:33N 35°29' E 139°49'0 0.0
2016-May-16 19:34N 35°29' E 139°49'0 0.0
2016-May-16 18:33N 35°29' E 139°49'0 0.0
2016-May-16 17:33N 35°29' E 139°49'0 0.0
2016-May-16 16:34N 35°29' E 139°49'0 0.0
2016-May-16 15:33N 35°29' E 139°49'0 0.0
2016-May-16 14:33N 35°29' E 139°49'0 0.0
2016-May-16 13:33N 35°29' E 139°49'0 0.0
2016-May-16 12:33N 35°29' E 139°49'1110.5
2016-May-16 11:33N 35°19' E 139°44'1211.9
2016-May-16 10:30N 35°07' E 139°45'238 7.2
2016-May-15 01:17N 34°37' E 134°57'7 9.5
2016-May-15 00:34N 34°35' E 135°05'2611.5
2016-May-14 22:20N 34°10' E 135°00'242 6.8
2016-May-13 10:31N 35°11' E 139°45'1111.4
2016-May-13 09:33N 35°22' E 139°42'  
Track history (hours):
 
Tides and Currents Weather Stations Pressure Air Temp Water Temp Dewpoint Dewpoint Depression Visibility Wind Speed Wind Dir Waves Ship Positions

No.3tokuyomaru

Last reported at 2016-May-23 09:31 UTC. Time now 2016-May-24 11:56 UTC.
Position N 33°57' E 134°57'.

Length 67 m; draft 4 m.

Type: Tanker. MMSI: 431002151.

Date/timePositionNaut miles runAvg speedWind from/ knotsBaromVisibWave heightAir tempDewpointWater temp
2016-May-23 09:31N 33°57' E 134°57'2 0.1
2016-May-22 10:14N 33°59' E 134°55'242 9.0
2016-May-21 07:29N 35°08' E 139°36'1010.2
2016-May-21 06:31N 35°14' E 139°46'1111.6
2016-May-21 05:34N 35°25' E 139°43'7 3.2
2016-May-21 03:29N 35°31' E 139°46'0 0.0
2016-May-21 02:27N 35°31' E 139°46'0 0.0
2016-May-21 01:05N 35°31' E 139°46'0 0.0
2016-May-21 00:29N 35°31' E 139°46'2 2.3
2016-May-20 23:33N 35°30' E 139°48'1 1.0
2016-May-20 22:32N 35°29' E 139°49'0 0.0
2016-May-20 21:32N 35°29' E 139°49'0 0.0
2016-May-20 20:32N 35°29' E 139°49'0 0.0
2016-May-20 19:32N 35°29' E 139°49'0 0.0
2016-May-20 18:32N 35°29' E 139°49'0 0.0
2016-May-20 17:32N 35°29' E 139°49'0 0.0
2016-May-20 16:32N 35°29' E 139°49'0 0.0
2016-May-20 15:29N 35°29' E 139°49'2 1.8
2016-May-20 14:33N 35°28' E 139°48'1111.3
2016-May-20 13:33N 35°16' E 139°46'1111.1
2016-May-20 12:31N 35°05' E 139°43'  
2016-May-17 07:12N 35°09' E 139°44'711.3
2016-May-17 06:33N 35°16' E 139°46'1110.8
2016-May-17 05:33N 35°27' E 139°45'3 1.4
2016-May-17 03:11N 35°30' E 139°45'0 0.0
2016-May-17 02:23N 35°30' E 139°45'0 0.0
2016-May-17 01:05N 35°30' E 139°45'0 0.0
2016-May-17 00:34N 35°30' E 139°45'4 3.6
2016-May-16 23:33N 35°29' E 139°49'0 0.0
2016-May-16 22:32N 35°29' E 139°49'0 0.0
2016-May-16 21:33N 35°29' E 139°49'0 0.0
2016-May-16 20:33N 35°29' E 139°49'0 0.0
2016-May-16 19:34N 35°29' E 139°49'0 0.0
2016-May-16 18:33N 35°29' E 139°49'0 0.0
2016-May-16 17:33N 35°29' E 139°49'0 0.0
2016-May-16 16:34N 35°29' E 139°49'0 0.0
2016-May-16 15:33N 35°29' E 139°49'0 0.0
2016-May-16 14:33N 35°29' E 139°49'0 0.0
2016-May-16 13:33N 35°29' E 139°49'0 0.0
2016-May-16 12:33N 35°29' E 139°49'1110.5
2016-May-16 11:33N 35°19' E 139°44'1211.9
2016-May-16 10:30N 35°07' E 139°45'238 7.2
2016-May-15 01:17N 34°37' E 134°57'7 9.5
2016-May-15 00:34N 34°35' E 135°05'2611.5
2016-May-14 22:20N 34°10' E 135°00'242 6.8
2016-May-13 10:31N 35°11' E 139°45'1111.4
2016-May-13 09:33N 35°22' E 139°42'  

Dump ship's entire track history